sensor_id;sensor_type;location;lat;lon;timestamp;P1;durP1;ratioP1;P2;durP2;ratioP2
24357;SDS011;13668;52.154;5.580;2022-11-13T00:01:17;20.55;;;16.45;;
24357;SDS011;13668;52.154;5.580;2022-11-13T00:03:43;20.52;;;15.45;;
24357;SDS011;13668;52.154;5.580;2022-11-13T00:06:10;18.02;;;14.00;;
24357;SDS011;13668;52.154;5.580;2022-11-13T00:08:36;17.60;;;14.55;;
24357;SDS011;13668;52.154;5.580;2022-11-13T00:11:07;18.33;;;13.60;;
24357;SDS011;13668;52.154;5.580;2022-11-13T00:13:36;18.30;;;13.23;;
24357;SDS011;13668;52.154;5.580;2022-11-13T00:16:04;19.63;;;13.15;;
24357;SDS011;13668;52.154;5.580;2022-11-13T00:18:32;15.77;;;12.82;;
24357;SDS011;13668;52.154;5.580;2022-11-13T00:21:03;17.50;;;13.55;;
24357;SDS011;13668;52.154;5.580;2022-11-13T00:23:30;19.90;;;12.35;;
24357;SDS011;13668;52.154;5.580;2022-11-13T00:26:09;17.17;;;13.10;;
24357;SDS011;13668;52.154;5.580;2022-11-13T00:28:35;17.52;;;13.35;;
24357;SDS011;13668;52.154;5.580;2022-11-13T00:31:01;20.50;;;13.98;;
24357;SDS011;13668;52.154;5.580;2022-11-13T00:33:28;20.20;;;14.32;;
24357;SDS011;13668;52.154;5.580;2022-11-13T00:36:00;19.98;;;14.40;;
24357;SDS011;13668;52.154;5.580;2022-11-13T00:38:26;20.80;;;14.07;;
24357;SDS011;13668;52.154;5.580;2022-11-13T00:40:52;19.23;;;13.05;;
24357;SDS011;13668;52.154;5.580;2022-11-13T00:43:18;18.63;;;13.93;;
24357;SDS011;13668;52.154;5.580;2022-11-13T00:45:44;19.23;;;13.32;;
24357;SDS011;13668;52.154;5.580;2022-11-13T00:48:10;16.70;;;12.20;;
24357;SDS011;13668;52.154;5.580;2022-11-13T00:50:36;14.30;;;11.50;;
24357;SDS011;13668;52.154;5.580;2022-11-13T00:53:02;13.80;;;11.80;;
24357;SDS011;13668;52.154;5.580;2022-11-13T00:55:28;15.40;;;11.48;;
24357;SDS011;13668;52.154;5.580;2022-11-13T00:57:54;16.13;;;11.93;;
24357;SDS011;13668;52.154;5.580;2022-11-13T01:00:20;19.15;;;13.52;;
24357;SDS011;13668;52.154;5.580;2022-11-13T01:02:46;14.65;;;11.98;;
24357;SDS011;13668;52.154;5.580;2022-11-13T01:05:12;17.42;;;11.88;;
24357;SDS011;13668;52.154;5.580;2022-11-13T01:07:38;16.30;;;12.60;;
24357;SDS011;13668;52.154;5.580;2022-11-13T01:10:04;15.35;;;12.07;;
24357;SDS011;13668;52.154;5.580;2022-11-13T01:12:30;17.50;;;11.98;;
24357;SDS011;13668;52.154;5.580;2022-11-13T01:14:56;17.02;;;12.77;;
24357;SDS011;13668;52.154;5.580;2022-11-13T01:17:22;16.73;;;13.25;;
24357;SDS011;13668;52.154;5.580;2022-11-13T01:19:48;15.57;;;12.68;;
24357;SDS011;13668;52.154;5.580;2022-11-13T01:22:14;19.95;;;12.82;;
24357;SDS011;13668;52.154;5.580;2022-11-13T01:24:40;16.15;;;11.93;;
24357;SDS011;13668;52.154;5.580;2022-11-13T01:27:06;18.00;;;12.85;;
24357;SDS011;13668;52.154;5.580;2022-11-13T01:29:32;14.57;;;12.57;;
24357;SDS011;13668;52.154;5.580;2022-11-13T01:31:58;14.70;;;12.23;;
24357;SDS011;13668;52.154;5.580;2022-11-13T01:34:24;16.73;;;12.55;;
24357;SDS011;13668;52.154;5.580;2022-11-13T01:36:50;15.93;;;11.68;;
24357;SDS011;13668;52.154;5.580;2022-11-13T01:39:16;17.05;;;13.18;;
24357;SDS011;13668;52.154;5.580;2022-11-13T01:41:42;13.80;;;12.30;;
24357;SDS011;13668;52.154;5.580;2022-11-13T01:44:14;20.88;;;12.88;;
24357;SDS011;13668;52.154;5.580;2022-11-13T01:46:41;15.32;;;12.63;;
24357;SDS011;13668;52.154;5.580;2022-11-13T01:51:36;14.95;;;12.82;;
24357;SDS011;13668;52.154;5.580;2022-11-13T01:54:07;16.55;;;13.00;;
24357;SDS011;13668;52.154;5.580;2022-11-13T01:56:36;15.57;;;13.52;;
24357;SDS011;13668;52.154;5.580;2022-11-13T01:59:06;16.60;;;13.80;;
24357;SDS011;13668;52.154;5.580;2022-11-13T02:01:33;19.05;;;14.40;;
24357;SDS011;13668;52.154;5.580;2022-11-13T02:03:59;20.40;;;15.75;;
24357;SDS011;13668;52.154;5.580;2022-11-13T02:06:27;16.52;;;14.43;;
24357;SDS011;13668;52.154;5.580;2022-11-13T02:08:53;17.48;;;14.18;;
24357;SDS011;13668;52.154;5.580;2022-11-13T02:11:19;19.42;;;15.05;;
24357;SDS011;13668;52.154;5.580;2022-11-13T02:13:45;18.00;;;14.23;;
24357;SDS011;13668;52.154;5.580;2022-11-13T02:16:11;18.73;;;15.45;;
24357;SDS011;13668;52.154;5.580;2022-11-13T02:18:38;18.80;;;14.52;;
24357;SDS011;13668;52.154;5.580;2022-11-13T02:23:51;20.83;;;13.93;;
24357;SDS011;13668;52.154;5.580;2022-11-13T02:26:18;17.98;;;13.65;;
24357;SDS011;13668;52.154;5.580;2022-11-13T02:28:46;17.23;;;13.50;;
24357;SDS011;13668;52.154;5.580;2022-11-13T02:31:12;16.55;;;13.52;;
24357;SDS011;13668;52.154;5.580;2022-11-13T02:33:38;16.52;;;13.05;;
24357;SDS011;13668;52.154;5.580;2022-11-13T02:36:05;15.60;;;13.43;;
24357;SDS011;13668;52.154;5.580;2022-11-13T02:38:32;15.82;;;13.05;;
24357;SDS011;13668;52.154;5.580;2022-11-13T02:40:59;18.40;;;13.32;;
24357;SDS011;13668;52.154;5.580;2022-11-13T02:43:25;16.05;;;12.95;;
24357;SDS011;13668;52.154;5.580;2022-11-13T02:45:51;15.18;;;12.02;;
24357;SDS011;13668;52.154;5.580;2022-11-13T02:48:17;13.55;;;12.10;;
24357;SDS011;13668;52.154;5.580;2022-11-13T02:50:43;16.23;;;12.60;;
24357;SDS011;13668;52.154;5.580;2022-11-13T02:53:09;16.30;;;12.93;;
24357;SDS011;13668;52.154;5.580;2022-11-13T02:55:35;15.23;;;12.63;;
24357;SDS011;13668;52.154;5.580;2022-11-13T02:58:01;16.92;;;12.63;;
24357;SDS011;13668;52.154;5.580;2022-11-13T03:00:27;16.75;;;12.43;;
24357;SDS011;13668;52.154;5.580;2022-11-13T03:02:54;14.50;;;12.80;;
24357;SDS011;13668;52.154;5.580;2022-11-13T03:05:21;15.57;;;12.43;;
24357;SDS011;13668;52.154;5.580;2022-11-13T03:07:47;15.05;;;12.65;;
24357;SDS011;13668;52.154;5.580;2022-11-13T03:10:13;18.10;;;11.85;;
24357;SDS011;13668;52.154;5.580;2022-11-13T03:12:39;13.68;;;12.18;;
24357;SDS011;13668;52.154;5.580;2022-11-13T03:15:06;15.52;;;12.98;;
24357;SDS011;13668;52.154;5.580;2022-11-13T03:17:32;15.20;;;12.18;;
24357;SDS011;13668;52.154;5.580;2022-11-13T03:19:59;17.10;;;13.07;;
24357;SDS011;13668;52.154;5.580;2022-11-13T03:22:25;16.65;;;13.25;;
24357;SDS011;13668;52.154;5.580;2022-11-13T03:24:54;14.85;;;11.45;;
24357;SDS011;13668;52.154;5.580;2022-11-13T03:27:20;16.48;;;12.65;;
24357;SDS011;13668;52.154;5.580;2022-11-13T03:29:46;16.05;;;12.20;;
24357;SDS011;13668;52.154;5.580;2022-11-13T03:32:12;17.48;;;13.52;;
24357;SDS011;13668;52.154;5.580;2022-11-13T03:34:38;16.63;;;12.82;;
24357;SDS011;13668;52.154;5.580;2022-11-13T03:37:04;16.10;;;12.75;;
24357;SDS011;13668;52.154;5.580;2022-11-13T03:39:30;15.80;;;13.32;;
24357;SDS011;13668;52.154;5.580;2022-11-13T03:41:56;17.00;;;13.63;;
24357;SDS011;13668;52.154;5.580;2022-11-13T03:44:24;17.85;;;12.95;;
24357;SDS011;13668;52.154;5.580;2022-11-13T03:46:50;16.67;;;12.60;;
24357;SDS011;13668;52.154;5.580;2022-11-13T03:49:16;19.48;;;14.27;;
24357;SDS011;13668;52.154;5.580;2022-11-13T03:51:42;15.88;;;13.55;;
24357;SDS011;13668;52.154;5.580;2022-11-13T03:54:08;15.60;;;12.82;;
24357;SDS011;13668;52.154;5.580;2022-11-13T03:56:34;17.98;;;13.95;;
24357;SDS011;13668;52.154;5.580;2022-11-13T03:59:00;17.20;;;12.80;;
24357;SDS011;13668;52.154;5.580;2022-11-13T04:01:26;15.65;;;13.13;;
24357;SDS011;13668;52.154;5.580;2022-11-13T04:03:52;16.17;;;12.35;;
24357;SDS011;13668;52.154;5.580;2022-11-13T04:06:18;15.95;;;13.25;;
24357;SDS011;13668;52.154;5.580;2022-11-13T04:08:45;15.32;;;12.93;;
24357;SDS011;13668;52.154;5.580;2022-11-13T04:11:11;17.33;;;13.05;;
24357;SDS011;13668;52.154;5.580;2022-11-13T04:13:37;18.65;;;14.00;;
24357;SDS011;13668;52.154;5.580;2022-11-13T04:16:04;17.25;;;12.77;;
24357;SDS011;13668;52.154;5.580;2022-11-13T04:18:30;19.65;;;13.60;;
24357;SDS011;13668;52.154;5.580;2022-11-13T04:21:00;16.70;;;12.90;;
24357;SDS011;13668;52.154;5.580;2022-11-13T04:23:26;16.50;;;12.95;;
24357;SDS011;13668;52.154;5.580;2022-11-13T04:25:52;17.20;;;13.35;;
24357;SDS011;13668;52.154;5.580;2022-11-13T04:28:18;16.92;;;13.48;;
24357;SDS011;13668;52.154;5.580;2022-11-13T04:30:43;17.10;;;13.38;;
24357;SDS011;13668;52.154;5.580;2022-11-13T04:33:09;18.15;;;13.07;;
24357;SDS011;13668;52.154;5.580;2022-11-13T04:35:35;16.10;;;12.82;;
24357;SDS011;13668;52.154;5.580;2022-11-13T04:38:02;15.90;;;13.52;;
24357;SDS011;13668;52.154;5.580;2022-11-13T04:40:27;16.05;;;13.50;;
24357;SDS011;13668;52.154;5.580;2022-11-13T04:42:53;18.85;;;13.85;;
24357;SDS011;13668;52.154;5.580;2022-11-13T04:45:20;17.35;;;14.43;;
24357;SDS011;13668;52.154;5.580;2022-11-13T04:47:47;20.58;;;14.98;;
24357;SDS011;13668;52.154;5.580;2022-11-13T04:50:13;22.10;;;14.48;;
24357;SDS011;13668;52.154;5.580;2022-11-13T04:52:40;19.17;;;14.20;;
24357;SDS011;13668;52.154;5.580;2022-11-13T04:55:06;18.75;;;14.85;;
24357;SDS011;13668;52.154;5.580;2022-11-13T04:57:32;19.75;;;14.75;;
24357;SDS011;13668;52.154;5.580;2022-11-13T04:59:58;23.08;;;15.98;;
24357;SDS011;13668;52.154;5.580;2022-11-13T05:02:24;27.58;;;18.52;;
24357;SDS011;13668;52.154;5.580;2022-11-13T05:04:50;28.48;;;18.95;;
24357;SDS011;13668;52.154;5.580;2022-11-13T05:07:16;26.40;;;17.52;;
24357;SDS011;13668;52.154;5.580;2022-11-13T05:09:42;23.80;;;17.80;;
24357;SDS011;13668;52.154;5.580;2022-11-13T05:12:08;21.80;;;16.35;;
24357;SDS011;13668;52.154;5.580;2022-11-13T05:14:34;22.35;;;16.73;;
24357;SDS011;13668;52.154;5.580;2022-11-13T05:17:01;21.80;;;16.17;;
24357;SDS011;13668;52.154;5.580;2022-11-13T05:19:26;21.67;;;15.75;;
24357;SDS011;13668;52.154;5.580;2022-11-13T05:21:52;18.77;;;14.27;;
24357;SDS011;13668;52.154;5.580;2022-11-13T05:24:18;22.60;;;16.58;;
24357;SDS011;13668;52.154;5.580;2022-11-13T05:26:44;22.85;;;17.08;;
24357;SDS011;13668;52.154;5.580;2022-11-13T05:29:10;18.70;;;14.38;;
24357;SDS011;13668;52.154;5.580;2022-11-13T05:31:36;18.13;;;15.20;;
24357;SDS011;13668;52.154;5.580;2022-11-13T05:34:03;19.13;;;14.52;;
24357;SDS011;13668;52.154;5.580;2022-11-13T05:36:29;16.52;;;13.93;;
24357;SDS011;13668;52.154;5.580;2022-11-13T05:38:55;16.98;;;14.15;;
24357;SDS011;13668;52.154;5.580;2022-11-13T05:41:21;17.88;;;14.55;;
24357;SDS011;13668;52.154;5.580;2022-11-13T05:43:47;18.27;;;13.75;;
24357;SDS011;13668;52.154;5.580;2022-11-13T05:46:15;16.65;;;13.30;;
24357;SDS011;13668;52.154;5.580;2022-11-13T05:48:41;19.40;;;13.35;;
24357;SDS011;13668;52.154;5.580;2022-11-13T05:53:34;17.17;;;14.00;;
24357;SDS011;13668;52.154;5.580;2022-11-13T05:56:00;16.45;;;12.32;;
24357;SDS011;13668;52.154;5.580;2022-11-13T05:58:27;17.02;;;13.75;;
24357;SDS011;13668;52.154;5.580;2022-11-13T06:01:02;17.17;;;14.05;;
24357;SDS011;13668;52.154;5.580;2022-11-13T06:03:29;16.67;;;13.15;;
24357;SDS011;13668;52.154;5.580;2022-11-13T06:05:55;16.60;;;12.93;;
24357;SDS011;13668;52.154;5.580;2022-11-13T06:08:21;16.20;;;14.30;;
24357;SDS011;13668;52.154;5.580;2022-11-13T06:10:46;15.70;;;13.25;;
24357;SDS011;13668;52.154;5.580;2022-11-13T06:13:12;18.13;;;13.70;;
24357;SDS011;13668;52.154;5.580;2022-11-13T06:15:38;18.00;;;13.45;;
24357;SDS011;13668;52.154;5.580;2022-11-13T06:18:04;20.15;;;14.00;;
24357;SDS011;13668;52.154;5.580;2022-11-13T06:20:32;16.25;;;14.02;;
24357;SDS011;13668;52.154;5.580;2022-11-13T06:22:58;16.20;;;13.65;;
24357;SDS011;13668;52.154;5.580;2022-11-13T06:25:24;16.58;;;12.82;;
24357;SDS011;13668;52.154;5.580;2022-11-13T06:27:51;16.70;;;13.73;;
24357;SDS011;13668;52.154;5.580;2022-11-13T06:30:17;16.35;;;13.38;;
24357;SDS011;13668;52.154;5.580;2022-11-13T06:32:43;17.58;;;14.48;;
24357;SDS011;13668;52.154;5.580;2022-11-13T06:35:09;17.75;;;13.77;;
24357;SDS011;13668;52.154;5.580;2022-11-13T06:37:35;19.27;;;14.98;;
24357;SDS011;13668;52.154;5.580;2022-11-13T06:40:01;19.58;;;14.65;;
24357;SDS011;13668;52.154;5.580;2022-11-13T06:42:27;16.83;;;14.60;;
24357;SDS011;13668;52.154;5.580;2022-11-13T06:44:53;21.50;;;15.45;;
24357;SDS011;13668;52.154;5.580;2022-11-13T06:47:19;19.75;;;15.13;;
24357;SDS011;13668;52.154;5.580;2022-11-13T06:49:45;18.33;;;14.70;;
24357;SDS011;13668;52.154;5.580;2022-11-13T06:52:10;16.83;;;13.75;;
24357;SDS011;13668;52.154;5.580;2022-11-13T06:54:36;17.88;;;13.98;;
24357;SDS011;13668;52.154;5.580;2022-11-13T06:57:02;18.58;;;14.43;;
24357;SDS011;13668;52.154;5.580;2022-11-13T06:59:28;17.00;;;14.20;;
24357;SDS011;13668;52.154;5.580;2022-11-13T07:01:54;17.48;;;14.35;;
24357;SDS011;13668;52.154;5.580;2022-11-13T07:04:20;17.20;;;14.27;;
24357;SDS011;13668;52.154;5.580;2022-11-13T07:06:46;16.42;;;14.35;;
24357;SDS011;13668;52.154;5.580;2022-11-13T07:09:12;17.13;;;13.90;;
24357;SDS011;13668;52.154;5.580;2022-11-13T07:11:38;21.35;;;15.88;;
24357;SDS011;13668;52.154;5.580;2022-11-13T07:14:04;20.73;;;14.68;;
24357;SDS011;13668;52.154;5.580;2022-11-13T07:16:33;18.25;;;15.13;;
24357;SDS011;13668;52.154;5.580;2022-11-13T07:18:59;16.85;;;15.10;;
24357;SDS011;13668;52.154;5.580;2022-11-13T07:21:25;17.25;;;13.98;;
24357;SDS011;13668;52.154;5.580;2022-11-13T07:23:51;19.52;;;15.18;;
24357;SDS011;13668;52.154;5.580;2022-11-13T07:26:17;16.67;;;13.63;;
24357;SDS011;13668;52.154;5.580;2022-11-13T07:28:43;17.77;;;14.38;;
24357;SDS011;13668;52.154;5.580;2022-11-13T07:31:10;17.23;;;14.00;;
24357;SDS011;13668;52.154;5.580;2022-11-13T07:33:36;18.67;;;14.13;;
24357;SDS011;13668;52.154;5.580;2022-11-13T07:36:02;20.77;;;15.05;;
24357;SDS011;13668;52.154;5.580;2022-11-13T07:38:28;16.48;;;13.82;;
24357;SDS011;13668;52.154;5.580;2022-11-13T07:40:56;16.35;;;14.50;;
24357;SDS011;13668;52.154;5.580;2022-11-13T07:43:22;17.60;;;14.10;;
24357;SDS011;13668;52.154;5.580;2022-11-13T07:45:48;16.70;;;13.63;;
24357;SDS011;13668;52.154;5.580;2022-11-13T07:48:18;16.77;;;13.90;;
24357;SDS011;13668;52.154;5.580;2022-11-13T07:50:44;17.70;;;14.18;;
24357;SDS011;13668;52.154;5.580;2022-11-13T07:53:10;16.33;;;13.25;;
24357;SDS011;13668;52.154;5.580;2022-11-13T07:55:36;18.65;;;13.85;;
24357;SDS011;13668;52.154;5.580;2022-11-13T07:58:03;15.25;;;13.65;;
24357;SDS011;13668;52.154;5.580;2022-11-13T08:00:30;16.02;;;14.27;;
24357;SDS011;13668;52.154;5.580;2022-11-13T08:02:57;16.67;;;14.00;;
24357;SDS011;13668;52.154;5.580;2022-11-13T08:05:26;16.60;;;13.95;;
24357;SDS011;13668;52.154;5.580;2022-11-13T08:07:52;17.73;;;14.07;;
24357;SDS011;13668;52.154;5.580;2022-11-13T08:10:18;18.02;;;14.55;;
24357;SDS011;13668;52.154;5.580;2022-11-13T08:12:45;17.95;;;13.98;;
24357;SDS011;13668;52.154;5.580;2022-11-13T08:15:11;15.20;;;13.15;;
24357;SDS011;13668;52.154;5.580;2022-11-13T08:17:37;16.45;;;13.40;;
24357;SDS011;13668;52.154;5.580;2022-11-13T08:20:04;18.83;;;13.77;;
24357;SDS011;13668;52.154;5.580;2022-11-13T08:22:30;17.23;;;13.73;;
24357;SDS011;13668;52.154;5.580;2022-11-13T08:24:56;13.30;;;11.90;;
24357;SDS011;13668;52.154;5.580;2022-11-13T08:27:22;13.60;;;11.32;;
24357;SDS011;13668;52.154;5.580;2022-11-13T08:29:48;11.65;;;10.45;;
24357;SDS011;13668;52.154;5.580;2022-11-13T08:32:15;12.18;;;9.73;;
24357;SDS011;13668;52.154;5.580;2022-11-13T08:34:41;14.95;;;10.27;;
24357;SDS011;13668;52.154;5.580;2022-11-13T08:37:07;10.93;;;9.10;;
24357;SDS011;13668;52.154;5.580;2022-11-13T08:39:33;13.20;;;9.18;;
24357;SDS011;13668;52.154;5.580;2022-11-13T08:41:59;11.93;;;9.35;;
24357;SDS011;13668;52.154;5.580;2022-11-13T08:44:25;10.45;;;9.35;;
24357;SDS011;13668;52.154;5.580;2022-11-13T08:46:51;11.95;;;9.85;;
24357;SDS011;13668;52.154;5.580;2022-11-13T08:49:17;11.23;;;10.13;;
24357;SDS011;13668;52.154;5.580;2022-11-13T08:51:43;9.75;;;8.68;;
24357;SDS011;13668;52.154;5.580;2022-11-13T08:54:09;10.68;;;9.57;;
24357;SDS011;13668;52.154;5.580;2022-11-13T08:56:35;9.43;;;8.52;;
24357;SDS011;13668;52.154;5.580;2022-11-13T08:59:01;11.40;;;8.80;;
24357;SDS011;13668;52.154;5.580;2022-11-13T09:01:27;8.98;;;8.10;;
24357;SDS011;13668;52.154;5.580;2022-11-13T09:03:53;9.15;;;7.85;;
24357;SDS011;13668;52.154;5.580;2022-11-13T09:06:19;8.10;;;7.30;;
24357;SDS011;13668;52.154;5.580;2022-11-13T09:08:45;8.90;;;8.02;;
24357;SDS011;13668;52.154;5.580;2022-11-13T09:11:11;8.45;;;6.82;;
24357;SDS011;13668;52.154;5.580;2022-11-13T09:13:37;8.00;;;7.35;;
24357;SDS011;13668;52.154;5.580;2022-11-13T09:16:03;7.45;;;6.80;;
24357;SDS011;13668;52.154;5.580;2022-11-13T09:18:29;7.47;;;6.78;;
24357;SDS011;13668;52.154;5.580;2022-11-13T09:20:55;7.28;;;6.68;;
24357;SDS011;13668;52.154;5.580;2022-11-13T09:23:25;8.73;;;7.82;;
24357;SDS011;13668;52.154;5.580;2022-11-13T09:25:51;7.88;;;7.07;;
24357;SDS011;13668;52.154;5.580;2022-11-13T09:28:17;8.23;;;7.53;;
24357;SDS011;13668;52.154;5.580;2022-11-13T09:30:42;8.63;;;7.60;;
24357;SDS011;13668;52.154;5.580;2022-11-13T09:33:09;8.60;;;7.80;;
24357;SDS011;13668;52.154;5.580;2022-11-13T09:35:39;7.68;;;6.97;;
24357;SDS011;13668;52.154;5.580;2022-11-13T09:38:05;9.27;;;8.35;;
24357;SDS011;13668;52.154;5.580;2022-11-13T09:40:36;8.75;;;7.95;;
24357;SDS011;13668;52.154;5.580;2022-11-13T09:43:03;8.70;;;7.75;;
24357;SDS011;13668;52.154;5.580;2022-11-13T09:45:31;8.82;;;7.85;;
24357;SDS011;13668;52.154;5.580;2022-11-13T09:48:21;8.07;;;7.32;;
24357;SDS011;13668;52.154;5.580;2022-11-13T09:50:43;9.10;;;8.10;;
24357;SDS011;13668;52.154;5.580;2022-11-13T09:53:10;9.77;;;8.70;;
24357;SDS011;13668;52.154;5.580;2022-11-13T09:55:39;9.68;;;8.68;;
24357;SDS011;13668;52.154;5.580;2022-11-13T09:58:11;10.32;;;9.35;;
24357;SDS011;13668;52.154;5.580;2022-11-13T10:00:38;9.63;;;8.50;;
24357;SDS011;13668;52.154;5.580;2022-11-13T10:08:29;10.00;;;8.65;;
24357;SDS011;13668;52.154;5.580;2022-11-13T10:13:32;11.52;;;8.07;;
24357;SDS011;13668;52.154;5.580;2022-11-13T10:16:33;10.18;;;8.27;;
24357;SDS011;13668;52.154;5.580;2022-11-13T10:18:51;11.98;;;7.57;;
24357;SDS011;13668;52.154;5.580;2022-11-13T10:21:36;10.23;;;8.25;;
24357;SDS011;13668;52.154;5.580;2022-11-13T10:24:10;11.18;;;8.25;;
24357;SDS011;13668;52.154;5.580;2022-11-13T10:26:38;9.70;;;7.57;;
24357;SDS011;13668;52.154;5.580;2022-11-13T10:29:14;10.18;;;7.85;;
24357;SDS011;13668;52.154;5.580;2022-11-13T10:31:42;9.13;;;7.90;;
24357;SDS011;13668;52.154;5.580;2022-11-13T10:34:08;9.93;;;8.60;;
24357;SDS011;13668;52.154;5.580;2022-11-13T10:36:48;9.13;;;7.97;;
24357;SDS011;13668;52.154;5.580;2022-11-13T10:39:16;11.15;;;7.97;;
24357;SDS011;13668;52.154;5.580;2022-11-13T10:41:49;8.85;;;7.43;;
24357;SDS011;13668;52.154;5.580;2022-11-13T10:44:24;8.52;;;7.45;;
24357;SDS011;13668;52.154;5.580;2022-11-13T10:47:12;10.02;;;8.32;;
24357;SDS011;13668;52.154;5.580;2022-11-13T10:49:39;8.80;;;7.32;;
24357;SDS011;13668;52.154;5.580;2022-11-13T10:52:19;9.23;;;6.80;;
24357;SDS011;13668;52.154;5.580;2022-11-13T10:54:45;7.95;;;7.15;;
24357;SDS011;13668;52.154;5.580;2022-11-13T10:57:21;10.60;;;7.80;;
24357;SDS011;13668;52.154;5.580;2022-11-13T10:59:48;9.18;;;8.20;;
24357;SDS011;13668;52.154;5.580;2022-11-13T11:02:15;11.65;;;7.80;;
24357;SDS011;13668;52.154;5.580;2022-11-13T11:04:41;10.43;;;8.15;;
24357;SDS011;13668;52.154;5.580;2022-11-13T11:09:40;8.75;;;7.75;;
24357;SDS011;13668;52.154;5.580;2022-11-13T11:12:09;9.65;;;8.23;;
24357;SDS011;13668;52.154;5.580;2022-11-13T11:17:25;11.52;;;8.38;;
24357;SDS011;13668;52.154;5.580;2022-11-13T11:20:00;10.68;;;7.47;;
24357;SDS011;13668;52.154;5.580;2022-11-13T11:22:27;7.90;;;7.20;;
24357;SDS011;13668;52.154;5.580;2022-11-13T11:25:03;10.23;;;7.10;;
24357;SDS011;13668;52.154;5.580;2022-11-13T11:27:34;8.75;;;7.20;;
24357;SDS011;13668;52.154;5.580;2022-11-13T11:30:04;8.93;;;7.25;;
24357;SDS011;13668;52.154;5.580;2022-11-13T11:32:33;7.80;;;7.00;;
24357;SDS011;13668;52.154;5.580;2022-11-13T11:35:04;8.10;;;7.30;;
24357;SDS011;13668;52.154;5.580;2022-11-13T11:37:35;9.55;;;7.43;;
24357;SDS011;13668;52.154;5.580;2022-11-13T11:40:05;8.10;;;7.28;;
24357;SDS011;13668;52.154;5.580;2022-11-13T11:42:48;10.35;;;7.55;;
24357;SDS011;13668;52.154;5.580;2022-11-13T11:45:22;10.43;;;7.50;;
24357;SDS011;13668;52.154;5.580;2022-11-13T11:47:48;10.52;;;8.30;;
24357;SDS011;13668;52.154;5.580;2022-11-13T11:50:16;7.90;;;7.10;;
24357;SDS011;13668;52.154;5.580;2022-11-13T11:52:54;8.82;;;7.25;;
24357;SDS011;13668;52.154;5.580;2022-11-13T11:55:41;7.85;;;7.15;;
24357;SDS011;13668;52.154;5.580;2022-11-13T12:00:46;6.43;;;5.47;;
24357;SDS011;13668;52.154;5.580;2022-11-13T12:06:19;7.05;;;4.88;;
24357;SDS011;13668;52.154;5.580;2022-11-13T12:08:39;6.13;;;5.28;;
24357;SDS011;13668;52.154;5.580;2022-11-13T12:16:36;5.35;;;4.60;;
24357;SDS011;13668;52.154;5.580;2022-11-13T12:19:04;7.90;;;5.20;;
24357;SDS011;13668;52.154;5.580;2022-11-13T12:21:45;4.78;;;4.38;;
24357;SDS011;13668;52.154;5.580;2022-11-13T12:24:17;4.75;;;4.28;;
24357;SDS011;13668;52.154;5.580;2022-11-13T12:27:03;4.75;;;4.35;;
24357;SDS011;13668;52.154;5.580;2022-11-13T12:29:37;6.03;;;4.47;;
24357;SDS011;13668;52.154;5.580;2022-11-13T12:32:20;6.70;;;4.22;;
24357;SDS011;13668;52.154;5.580;2022-11-13T12:34:50;4.05;;;3.63;;
24357;SDS011;13668;52.154;5.580;2022-11-13T12:37:20;4.15;;;3.10;;
24357;SDS011;13668;52.154;5.580;2022-11-13T12:39:53;3.05;;;2.33;;
24357;SDS011;13668;52.154;5.580;2022-11-13T12:42:34;3.65;;;2.50;;
24357;SDS011;13668;52.154;5.580;2022-11-13T12:47:48;3.25;;;1.90;;
24357;SDS011;13668;52.154;5.580;2022-11-13T12:50:26;2.30;;;1.73;;
24357;SDS011;13668;52.154;5.580;2022-11-13T12:52:59;3.00;;;2.10;;
24357;SDS011;13668;52.154;5.580;2022-11-13T12:55:26;3.75;;;2.15;;
24357;SDS011;13668;52.154;5.580;2022-11-13T12:57:53;4.47;;;1.90;;
24357;SDS011;13668;52.154;5.580;2022-11-13T13:00:20;3.88;;;1.95;;
24357;SDS011;13668;52.154;5.580;2022-11-13T13:02:50;2.38;;;1.85;;
24357;SDS011;13668;52.154;5.580;2022-11-13T13:07:51;2.72;;;2.35;;
24357;SDS011;13668;52.154;5.580;2022-11-13T13:10:28;3.30;;;2.50;;
24357;SDS011;13668;52.154;5.580;2022-11-13T13:13:02;3.63;;;2.55;;
24357;SDS011;13668;52.154;5.580;2022-11-13T13:15:36;2.17;;;1.98;;
24357;SDS011;13668;52.154;5.580;2022-11-13T13:20:44;3.33;;;1.52;;
24357;SDS011;13668;52.154;5.580;2022-11-13T13:23:11;3.50;;;1.80;;
24357;SDS011;13668;52.154;5.580;2022-11-13T13:25:38;3.70;;;1.45;;
24357;SDS011;13668;52.154;5.580;2022-11-13T13:31:08;3.08;;;1.70;;
24357;SDS011;13668;52.154;5.580;2022-11-13T13:37:11;2.03;;;1.48;;
24357;SDS011;13668;52.154;5.580;2022-11-13T13:44:38;5.60;;;1.80;;
24357;SDS011;13668;52.154;5.580;2022-11-13T13:47:22;1.75;;;1.27;;
24357;SDS011;13668;52.154;5.580;2022-11-13T13:49:49;1.60;;;1.40;;
24357;SDS011;13668;52.154;5.580;2022-11-13T13:52:15;6.97;;;1.90;;
24357;SDS011;13668;52.154;5.580;2022-11-13T13:54:41;3.72;;;1.70;;
24357;SDS011;13668;52.154;5.580;2022-11-13T13:57:10;2.92;;;1.70;;
24357;SDS011;13668;52.154;5.580;2022-11-13T13:59:37;2.78;;;1.60;;
24357;SDS011;13668;52.154;5.580;2022-11-13T14:02:12;3.67;;;1.60;;
24357;SDS011;13668;52.154;5.580;2022-11-13T14:04:42;7.35;;;2.97;;
24357;SDS011;13668;52.154;5.580;2022-11-13T14:07:26;5.32;;;3.95;;
24357;SDS011;13668;52.154;5.580;2022-11-13T14:10:05;3.53;;;2.30;;
24357;SDS011;13668;52.154;5.580;2022-11-13T14:12:31;3.60;;;1.80;;
24357;SDS011;13668;52.154;5.580;2022-11-13T14:14:57;2.28;;;2.05;;
24357;SDS011;13668;52.154;5.580;2022-11-13T14:17:23;2.10;;;2.00;;
24357;SDS011;13668;52.154;5.580;2022-11-13T14:19:50;1.75;;;1.65;;
24357;SDS011;13668;52.154;5.580;2022-11-13T14:22:16;1.70;;;1.60;;
24357;SDS011;13668;52.154;5.580;2022-11-13T14:27:09;1.95;;;1.73;;
24357;SDS011;13668;52.154;5.580;2022-11-13T14:29:43;3.60;;;1.85;;
24357;SDS011;13668;52.154;5.580;2022-11-13T14:32:43;2.20;;;1.75;;
24357;SDS011;13668;52.154;5.580;2022-11-13T14:35:02;2.60;;;1.52;;
24357;SDS011;13668;52.154;5.580;2022-11-13T14:37:34;2.85;;;2.03;;
24357;SDS011;13668;52.154;5.580;2022-11-13T14:40:02;2.47;;;1.45;;
24357;SDS011;13668;52.154;5.580;2022-11-13T14:42:31;1.90;;;1.25;;
24357;SDS011;13668;52.154;5.580;2022-11-13T14:45:20;4.85;;;1.40;;
24357;SDS011;13668;52.154;5.580;2022-11-13T14:50:35;3.67;;;2.05;;
24357;SDS011;13668;52.154;5.580;2022-11-13T14:53:02;8.45;;;3.67;;
24357;SDS011;13668;52.154;5.580;2022-11-13T14:55:30;4.05;;;3.45;;
24357;SDS011;13668;52.154;5.580;2022-11-13T14:57:56;7.55;;;3.63;;
24357;SDS011;13668;52.154;5.580;2022-11-13T15:00:40;4.18;;;3.78;;
24357;SDS011;13668;52.154;5.580;2022-11-13T15:03:06;6.63;;;4.68;;
24357;SDS011;13668;52.154;5.580;2022-11-13T15:05:32;8.77;;;4.63;;
24357;SDS011;13668;52.154;5.580;2022-11-13T15:07:58;5.75;;;4.32;;
24357;SDS011;13668;52.154;5.580;2022-11-13T15:10:25;4.07;;;3.45;;
24357;SDS011;13668;52.154;5.580;2022-11-13T15:12:52;4.10;;;3.47;;
24357;SDS011;13668;52.154;5.580;2022-11-13T15:15:19;4.75;;;3.65;;
24357;SDS011;13668;52.154;5.580;2022-11-13T15:17:46;7.90;;;4.10;;
24357;SDS011;13668;52.154;5.580;2022-11-13T15:20:15;3.00;;;2.80;;
24357;SDS011;13668;52.154;5.580;2022-11-13T15:22:41;5.90;;;3.28;;
24357;SDS011;13668;52.154;5.580;2022-11-13T15:25:14;3.05;;;2.53;;
24357;SDS011;13668;52.154;5.580;2022-11-13T15:27:43;5.32;;;3.38;;
24357;SDS011;13668;52.154;5.580;2022-11-13T15:30:09;5.68;;;3.25;;
24357;SDS011;13668;52.154;5.580;2022-11-13T15:32:36;5.10;;;3.97;;